Time;durP1;ratioP1;P1;durP2;ratioP2;P2;SDS_P1;SDS_P2;PMS_P1;PMS_P2;Temp;Humidity;BMP_temperature;BMP_pressure;BME280_temperature;BME280_humidity;BME280_pressure;Samples;Min_cycle;Max_cycle;Signal;HPM_P1;HPM_P2
2022/12/23 00:01:31;;;;;;;3.40;3.22;;;;;;;;;;5032593;28;20050;-86
2022/12/23 00:03:58;;;;;;;3.42;3.25;;;;;;;;;;5032450;28;20107;-86
2022/12/23 00:06:24;;;;;;;2.40;2.22;;;;;;;;;;5032052;28;20115;-86
2022/12/23 00:08:56;;;;;;;3.47;3.28;;;;;;;;;;5031974;28;20111;-86
2022/12/23 00:11:24;;;;;;;3.22;3.03;;;;;;;;;;5032186;28;20041;-86
2022/12/23 00:16:36;;;;;;;2.05;1.92;;;;;;;;;;5032078;28;20055;-86
2022/12/23 00:19:02;;;;;;;3.35;3.15;;;;;;;;;;5031930;28;20465;-86
2022/12/23 00:21:29;;;;;;;1.77;1.67;;;;;;;;;;5032250;28;20112;-86
2022/12/23 00:23:55;;;;;;;1.90;1.80;;;;;;;;;;5032112;28;20057;-86
2022/12/23 00:26:23;;;;;;;2.00;1.90;;;;;;;;;;5032075;28;20053;-86
2022/12/23 00:28:50;;;;;;;1.35;1.35;;;;;;;;;;5032073;28;20053;-86
2022/12/23 00:31:18;;;;;;;4.47;2.80;;;;;;;;;;5032045;28;20477;-86
2022/12/23 00:33:46;;;;;;;4.15;3.13;;;;;;;;;;5031347;28;20096;-87
2022/12/23 00:36:14;;;;;;;0.60;0.60;;;;;;;;;;5012267;28;20092;-87
2022/12/23 00:44:08;;;;;;;3.03;2.58;;;;;;;;;;5011941;28;20060;-86
2022/12/23 00:46:36;;;;;;;2.85;2.65;;;;;;;;;;5012273;28;20112;-87
2022/12/23 00:51:47;;;;;;;4.05;3.67;;;;;;;;;;5013412;28;20057;-87
2022/12/23 00:54:13;;;;;;;1.63;1.58;;;;;;;;;;5019209;28;20108;-87
2022/12/23 00:56:40;;;;;;;2.63;2.53;;;;;;;;;;5035519;28;20581;-86
2022/12/23 00:59:06;;;;;;;1.67;1.58;;;;;;;;;;5035767;28;20092;-87
2022/12/23 01:07:02;;;;;;;2.00;1.90;;;;;;;;;;5035682;28;20060;-87
2022/12/23 01:09:29;;;;;;;1.63;1.52;;;;;;;;;;5030979;28;20112;-86
2022/12/23 01:11:55;;;;;;;1.77;1.67;;;;;;;;;;5015719;28;20054;-86
2022/12/23 01:14:22;;;;;;;1.77;1.70;;;;;;;;;;5015704;28;20054;-86
2022/12/23 01:16:48;;;;;;;3.17;2.97;;;;;;;;;;5015647;28;20045;-87
2022/12/23 01:19:15;;;;;;;1.85;1.75;;;;;;;;;;5015443;28;20455;-86
2022/12/23 01:21:42;;;;;;;2.67;2.58;;;;;;;;;;5015745;28;20104;-86
2022/12/23 01:24:09;;;;;;;2.65;2.22;;;;;;;;;;5015520;28;20108;-87
2022/12/23 01:26:36;;;;;;;2.72;2.53;;;;;;;;;;5015155;28;20050;-86
2022/12/23 01:29:02;;;;;;;3.08;2.88;;;;;;;;;;5015260;28;20492;-86
2022/12/23 01:31:29;;;;;;;1.80;1.70;;;;;;;;;;5015398;28;20069;-87
2022/12/23 01:33:55;;;;;;;5.57;2.42;;;;;;;;;;5015332;28;20345;-86
2022/12/23 01:36:22;;;;;;;2.75;2.60;;;;;;;;;;5015579;28;20061;-86
2022/12/23 01:38:50;;;;;;;1.90;1.80;;;;;;;;;;5015039;28;20053;-86
2022/12/23 01:42:42;;;;;;;2.03;1.92;;;;;;;;;;5015303;28;20058;-86
2022/12/23 01:44:23;;;;;;;1.92;1.83;;;;;;;;;;5014819;28;20578;-87
2022/12/23 01:46:49;;;;;;;2.85;2.72;;;;;;;;;;5014726;28;20050;-87
2022/12/23 01:49:16;;;;;;;1.65;1.55;;;;;;;;;;5015173;28;20058;-87
2022/12/23 01:51:42;;;;;;;1.58;1.48;;;;;;;;;;5014759;28;20096;-86
2022/12/23 01:54:10;;;;;;;2.25;2.15;;;;;;;;;;5014629;28;20046;-87
2022/12/23 01:56:38;;;;;;;2.97;2.78;;;;;;;;;;5014700;28;20096;-87
2022/12/23 01:59:06;;;;;;;2.88;2.67;;;;;;;;;;5014818;28;20180;-86
2022/12/23 02:04:16;;;;;;;2.08;1.95;;;;;;;;;;4991748;28;20546;-86
2022/12/23 02:09:29;;;;;;;1.48;1.40;;;;;;;;;;5014467;28;20204;-87
2022/12/23 02:12:05;;;;;;;1.45;1.35;;;;;;;;;;5014679;28;20050;-87
2022/12/23 02:17:22;;;;;;;;;;;;;;;;;;5014992;28;20077;-86
2022/12/23 02:20:03;;;;;;;0.63;0.63;;;;;;;;;;5017780;28;19963;-86
2022/12/23 02:22:38;;;;;;;0.88;0.88;;;;;;;;;;5032307;28;20057;-87
2022/12/23 02:25:23;;;;;;;2.45;2.35;;;;;;;;;;5033902;28;20517;-86
2022/12/23 02:27:56;;;;;;;1.55;1.45;;;;;;;;;;5034253;28;20087;-87
2022/12/23 02:30:40;;;;;;;2.90;2.70;;;;;;;;;;5033517;28;20503;-87
2022/12/23 02:33:13;;;;;;;0.65;0.65;;;;;;;;;;5034319;28;20145;-87
2022/12/23 02:35:43;;;;;;;2.17;2.08;;;;;;;;;;5033992;28;20055;-86
2022/12/23 02:38:11;;;;;;;1.50;1.13;;;;;;;;;;5033591;28;20061;-87
2022/12/23 02:40:40;;;;;;;2.63;2.47;;;;;;;;;;5033915;28;20077;-87
2022/12/23 02:43:09;;;;;;;4.28;3.42;;;;;;;;;;5033616;28;20764;-87
2022/12/23 02:45:39;;;;;;;10.30;9.38;;;;;;;;;;5033558;28;20057;-86
2022/12/23 02:48:08;;;;;;;4.35;3.85;;;;;;;;;;5033890;28;20053;-86
2022/12/23 02:50:37;;;;;;;2.05;1.95;;;;;;;;;;5033708;28;20129;-86
2022/12/23 02:53:07;;;;;;;2.78;2.58;;;;;;;;;;5033546;28;20450;-86
2022/12/23 02:55:35;;;;;;;0.93;0.90;;;;;;;;;;5033637;28;20107;-86
2022/12/23 02:58:03;;;;;;;2.22;2.08;;;;;;;;;;5033622;28;20099;-86
2022/12/23 03:00:30;;;;;;;1.85;1.58;;;;;;;;;;5033592;28;20049;-86
2022/12/23 03:02:58;;;;;;;2.88;2.72;;;;;;;;;;5033537;28;20061;-86
2022/12/23 03:05:26;;;;;;;2.75;2.55;;;;;;;;;;5027221;28;20527;-86
2022/12/23 03:07:53;;;;;;;2.33;2.05;;;;;;;;;;5013500;28;20107;-86
2022/12/23 03:10:28;;;;;;;2.85;2.65;;;;;;;;;;5013089;28;20049;-86
2022/12/23 03:12:58;;;;;;;3.33;2.22;;;;;;;;;;5013489;28;20050;-86
2022/12/23 03:15:28;;;;;;;2.05;1.92;;;;;;;;;;5012630;28;20132;-86
2022/12/23 03:18:00;;;;;;;1.27;1.25;;;;;;;;;;5013375;28;20196;-86
2022/12/23 03:20:28;;;;;;;1.05;0.85;;;;;;;;;;5013410;28;20064;-86
2022/12/23 03:23:00;;;;;;;3.28;3.08;;;;;;;;;;5013354;28;20046;-86
2022/12/23 03:25:29;;;;;;;1.52;1.42;;;;;;;;;;5012962;28;20495;-86
2022/12/23 03:27:58;;;;;;;3.08;2.78;;;;;;;;;;5013574;28;20112;-86
2022/12/23 03:30:25;;;;;;;2.55;2.45;;;;;;;;;;5013088;28;20041;-86
2022/12/23 03:32:53;;;;;;;0.52;0.52;;;;;;;;;;5012910;28;20054;-86
2022/12/23 03:35:23;;;;;;;3.55;3.35;;;;;;;;;;5012795;28;20100;-85
2022/12/23 03:37:52;;;;;;;3.10;2.78;;;;;;;;;;5013132;28;20049;-86
2022/12/23 03:40:20;;;;;;;3.63;2.22;;;;;;;;;;5013087;28;20050;-86
2022/12/23 03:42:49;;;;;;;0.75;0.75;;;;;;;;;;5012767;28;20050;-85
2022/12/23 03:45:17;;;;;;;3.05;2.85;;;;;;;;;;5014886;28;20475;-86
2022/12/23 03:47:46;;;;;;;1.80;1.70;;;;;;;;;;5032755;28;20054;-86
2022/12/23 03:50:15;;;;;;;1.88;1.77;;;;;;;;;;5032101;28;20479;-87
2022/12/23 03:52:45;;;;;;;3.38;3.17;;;;;;;;;;5032529;28;20049;-86
2022/12/23 03:55:14;;;;;;;1.92;1.83;;;;;;;;;;5030857;28;20049;-87
2022/12/23 03:57:43;;;;;;;1.20;1.17;;;;;;;;;;5012899;28;20108;-87
2022/12/23 04:00:10;;;;;;;1.20;1.20;;;;;;;;;;5012337;28;20050;-86
2022/12/23 04:02:41;;;;;;;1.60;1.50;;;;;;;;;;5013395;28;20050;-86
2022/12/23 04:05:16;;;;;;;1.83;1.73;;;;;;;;;;5012940;28;20111;-86
2022/12/23 04:07:47;;;;;;;1.25;1.25;;;;;;;;;;5032476;28;20049;-86
2022/12/23 04:10:14;;;;;;;1.48;1.40;;;;;;;;;;5032402;28;20045;-86
2022/12/23 04:12:41;;;;;;;1.23;1.20;;;;;;;;;;5032316;28;20045;-86
2022/12/23 04:15:07;;;;;;;3.97;2.50;;;;;;;;;;5032267;28;20115;-86
2022/12/23 04:17:34;;;;;;;2.90;2.78;;;;;;;;;;5032448;28;20049;-85
2022/12/23 04:20:00;;;;;;;1.13;1.05;;;;;;;;;;5031854;28;20111;-85
2022/12/23 04:22:27;;;;;;;1.75;1.65;;;;;;;;;;5013877;28;20045;-85
2022/12/23 04:24:55;;;;;;;1.15;1.13;;;;;;;;;;5012201;28;20054;-88
2022/12/23 04:27:21;;;;;;;1.70;1.60;;;;;;;;;;5012150;28;20053;-87
2022/12/23 04:29:47;;;;;;;2.90;2.70;;;;;;;;;;5011983;28;20108;-88
2022/12/23 04:32:14;;;;;;;1.40;1.30;;;;;;;;;;5028209;28;20111;-88
2022/12/23 04:34:41;;;;;;;2.17;2.08;;;;;;;;;;5031912;28;20123;-88
2022/12/23 04:37:07;;;;;;;1.45;1.20;;;;;;;;;;5031961;28;20053;-85
2022/12/23 04:39:34;;;;;;;3.40;3.15;;;;;;;;;;5031793;28;20049;-85
2022/12/23 04:42:01;;;;;;;3.50;3.33;;;;;;;;;;5018054;28;20550;-85
2022/12/23 04:44:28;;;;;;;0.98;0.98;;;;;;;;;;5012072;28;20107;-85
2022/12/23 04:46:54;;;;;;;1.42;1.40;;;;;;;;;;5024563;28;20049;-85
2022/12/23 04:49:21;;;;;;;2.67;2.08;;;;;;;;;;5031556;28;20560;-85
2022/12/23 04:51:47;;;;;;;1.85;1.75;;;;;;;;;;5020626;28;20046;-85
2022/12/23 04:54:14;;;;;;;1.30;1.20;;;;;;;;;;5011838;28;20046;-85
2022/12/23 04:56:40;;;;;;;1.55;1.45;;;;;;;;;;5022094;28;20398;-88
2022/12/23 04:59:09;;;;;;;2.58;2.47;;;;;;;;;;5031757;28;20099;-88
2022/12/23 05:01:36;;;;;;;1.90;1.80;;;;;;;;;;5031846;28;20049;-87
2022/12/23 05:04:02;;;;;;;1.92;1.83;;;;;;;;;;5031711;28;20099;-85
2022/12/23 05:06:29;;;;;;;1.80;1.70;;;;;;;;;;5031620;28;20562;-86
2022/12/23 05:08:55;;;;;;;3.53;3.33;;;;;;;;;;5031469;28;20415;-86
2022/12/23 05:11:22;;;;;;;2.72;2.63;;;;;;;;;;5024718;28;20041;-85
2022/12/23 05:13:48;;;;;;;6.28;5.47;;;;;;;;;;5011906;28;20054;-85
2022/12/23 05:16:16;;;;;;;4.18;2.67;;;;;;;;;;5012007;28;20065;-88
2022/12/23 05:18:42;;;;;;;3.13;2.90;;;;;;;;;;5011380;28;20462;-87
2022/12/23 05:21:09;;;;;;;1.83;1.73;;;;;;;;;;5016215;28;20107;-88
2022/12/23 05:23:35;;;;;;;1.73;1.63;;;;;;;;;;5031657;28;20467;-85
2022/12/23 05:26:02;;;;;;;2.30;2.20;;;;;;;;;;5028235;28;20053;-87
2022/12/23 05:28:28;;;;;;;2.88;2.63;;;;;;;;;;5011497;28;20050;-87
2022/12/23 05:30:59;;;;;;;1.48;1.38;;;;;;;;;;5011785;28;20046;-85
2022/12/23 05:33:27;;;;;;;3.10;1.73;;;;;;;;;;5011507;28;20392;-85
2022/12/23 05:35:54;;;;;;;1.92;1.77;;;;;;;;;;5013015;28;20492;-87
2022/12/23 05:38:20;;;;;;;2.58;2.45;;;;;;;;;;5033482;28;20054;-87
2022/12/23 05:40:47;;;;;;;2.65;2.50;;;;;;;;;;5034874;28;20219;-85
2022/12/23 05:43:13;;;;;;;1.98;1.88;;;;;;;;;;5034844;28;20487;-86
2022/12/23 05:45:40;;;;;;;3.63;3.08;;;;;;;;;;5034672;28;20084;-85
2022/12/23 05:48:07;;;;;;;1.67;1.58;;;;;;;;;;5016361;28;20400;-87
2022/12/23 05:50:34;;;;;;;0.90;0.88;;;;;;;;;;5015287;28;20049;-85
2022/12/23 05:53:01;;;;;;;3.45;2.63;;;;;;;;;;5015083;28;20050;-85
2022/12/23 05:55:27;;;;;;;2.13;2.03;;;;;;;;;;5014734;28;20066;-88
2022/12/23 05:57:54;;;;;;;4.30;4.13;;;;;;;;;;5015142;28;20042;-86
2022/12/23 06:00:21;;;;;;;1.70;1.60;;;;;;;;;;5014951;28;20054;-85
2022/12/23 06:02:47;;;;;;;1.98;1.88;;;;;;;;;;5030262;28;20061;-85
2022/12/23 06:05:14;;;;;;;0.93;0.90;;;;;;;;;;5034502;28;20780;-88
2022/12/23 06:07:42;;;;;;;4.35;4.03;;;;;;;;;;5034304;28;20454;-85
2022/12/23 06:10:09;;;;;;;2.92;2.72;;;;;;;;;;5034134;28;20041;-85
2022/12/23 06:12:36;;;;;;;2.40;2.25;;;;;;;;;;5020653;28;20050;-85
2022/12/23 06:15:03;;;;;;;3.30;3.10;;;;;;;;;;5014410;28;20108;-85
2022/12/23 06:17:29;;;;;;;4.95;3.72;;;;;;;;;;5026986;28;20049;-86
2022/12/23 06:19:56;;;;;;;1.45;1.35;;;;;;;;;;5034151;28;20049;-86
2022/12/23 06:22:22;;;;;;;1.45;1.35;;;;;;;;;;5034403;28;20053;-86
2022/12/23 06:24:50;;;;;;;5.88;3.25;;;;;;;;;;5044639;28;20083;-85
2022/12/23 06:27:18;;;;;;;2.92;2.47;;;;;;;;;;5053627;28;20065;-88
2022/12/23 06:29:45;;;;;;;2.13;2.00;;;;;;;;;;5053609;28;20556;-85
2022/12/23 06:32:11;;;;;;;4.45;4.10;;;;;;;;;;5053842;28;20052;-85
2022/12/23 06:34:38;;;;;;;1.73;1.63;;;;;;;;;;5053677;28;20057;-86
2022/12/23 06:37:04;;;;;;;2.75;2.60;;;;;;;;;;5053600;28;20103;-86
2022/12/23 06:39:31;;;;;;;2.72;2.53;;;;;;;;;;5053894;28;20071;-86
2022/12/23 06:41:58;;;;;;;3.45;3.25;;;;;;;;;;5053791;28;20114;-87
2022/12/23 06:44:25;;;;;;;1.52;1.42;;;;;;;;;;5053327;28;20482;-86
2022/12/23 06:46:51;;;;;;;2.60;2.40;;;;;;;;;;5044180;28;20049;-86
2022/12/23 06:49:18;;;;;;;3.17;2.95;;;;;;;;;;5032348;28;20099;-86
2022/12/23 06:51:44;;;;;;;3.67;3.47;;;;;;;;;;5033505;28;20449;-86
2022/12/23 06:54:11;;;;;;;3.63;3.38;;;;;;;;;;5033247;28;20049;-86
2022/12/23 06:56:38;;;;;;;2.38;2.28;;;;;;;;;;5033273;28;20053;-86
2022/12/23 06:59:05;;;;;;;1.77;1.67;;;;;;;;;;5033569;28;20049;-86
2022/12/23 07:01:32;;;;;;;3.08;2.80;;;;;;;;;;5043523;28;20048;-85
2022/12/23 07:03:58;;;;;;;12.10;4.18;;;;;;;;;;5050207;28;20045;-86
2022/12/23 07:06:25;;;;;;;3.17;2.85;;;;;;;;;;5049504;28;20058;-86
2022/12/23 07:08:51;;;;;;;4.35;4.07;;;;;;;;;;5033882;28;20466;-86
2022/12/23 07:11:18;;;;;;;3.10;2.92;;;;;;;;;;5033461;28;20057;-86
2022/12/23 07:13:46;;;;;;;4.70;4.43;;;;;;;;;;5033627;28;20132;-85
2022/12/23 07:16:13;;;;;;;5.80;5.50;;;;;;;;;;5033639;28;20049;-86
2022/12/23 07:18:40;;;;;;;3.45;2.97;;;;;;;;;;5025407;28;20045;-86
2022/12/23 07:21:07;;;;;;;5.68;5.38;;;;;;;;;;5024208;28;20095;-86
2022/12/23 07:23:33;;;;;;;4.82;3.42;;;;;;;;;;5043700;28;20041;-86
2022/12/23 07:25:59;;;;;;;6.70;6.18;;;;;;;;;;5031948;28;20121;-87
2022/12/23 07:28:26;;;;;;;4.05;3.83;;;;;;;;;;5013607;28;20100;-86
2022/12/23 07:30:52;;;;;;;5.38;4.97;;;;;;;;;;5013915;28;20050;-86
2022/12/23 07:33:20;;;;;;;5.85;5.55;;;;;;;;;;5028253;28;20045;-86
2022/12/23 07:35:47;;;;;;;4.78;4.32;;;;;;;;;;5033030;28;20053;-86
2022/12/23 07:38:13;;;;;;;9.40;7.00;;;;;;;;;;5028909;28;20497;-86
2022/12/23 07:40:40;;;;;;;5.68;4.57;;;;;;;;;;5013722;28;20045;-86
2022/12/23 07:43:06;;;;;;;4.72;3.53;;;;;;;;;;5025507;28;20046;-86
2022/12/23 07:45:33;;;;;;;5.78;5.47;;;;;;;;;;5033134;28;20049;-86
2022/12/23 07:48:00;;;;;;;10.00;8.15;;;;;;;;;;5031770;28;20053;-86
2022/12/23 07:50:28;;;;;;;6.05;5.65;;;;;;;;;;5029368;28;20706;-87
2022/12/23 07:52:55;;;;;;;4.35;4.03;;;;;;;;;;5024058;28;20103;-87
2022/12/23 07:55:21;;;;;;;4.18;3.97;;;;;;;;;;5031068;28;20115;-87
2022/12/23 07:57:48;;;;;;;2.40;2.30;;;;;;;;;;5032725;28;20053;-86
2022/12/23 08:00:15;;;;;;;3.42;3.17;;;;;;;;;;5032642;28;20446;-87
2022/12/23 08:02:41;;;;;;;3.75;3.42;;;;;;;;;;5032476;28;20450;-86
2022/12/23 08:05:08;;;;;;;4.93;4.57;;;;;;;;;;5032927;28;20095;-87
2022/12/23 08:07:36;;;;;;;5.75;4.30;;;;;;;;;;5025165;28;20104;-87
2022/12/23 08:10:03;;;;;;;2.33;2.13;;;;;;;;;;5013065;28;20096;-86
2022/12/23 08:12:29;;;;;;;6.85;6.00;;;;;;;;;;5013006;28;20096;-86
2022/12/23 08:14:56;;;;;;;3.88;3.60;;;;;;;;;;5029393;28;20053;-86
2022/12/23 08:17:25;;;;;;;5.45;4.40;;;;;;;;;;5032656;28;20057;-87
2022/12/23 08:19:52;;;;;;;4.30;4.07;;;;;;;;;;5032456;28;20057;-87
2022/12/23 08:22:18;;;;;;;3.70;3.50;;;;;;;;;;5032898;28;20049;-87
2022/12/23 08:24:46;;;;;;;5.90;3.72;;;;;;;;;;5032355;28;20076;-87
2022/12/23 08:27:13;;;;;;;4.53;4.22;;;;;;;;;;5032423;28;20552;-87
2022/12/23 08:29:39;;;;;;;2.95;2.75;;;;;;;;;;5032795;28;20045;-87
2022/12/23 08:32:06;;;;;;;3.33;3.13;;;;;;;;;;5032373;28;20132;-87
2022/12/23 08:34:33;;;;;;;3.10;2.92;;;;;;;;;;5032259;28;20045;-87
2022/12/23 08:36:59;;;;;;;5.63;5.28;;;;;;;;;;5032522;28;20107;-87
2022/12/23 08:39:26;;;;;;;4.40;3.72;;;;;;;;;;5033034;28;20068;-87
2022/12/23 08:41:54;;;;;;;6.68;4.93;;;;;;;;;;5032448;28;20108;-87
2022/12/23 08:44:20;;;;;;;7.35;6.63;;;;;;;;;;5032555;28;20119;-88
2022/12/23 08:46:47;;;;;;;5.90;5.32;;;;;;;;;;5031477;28;20664;-89
2022/12/23 08:49:13;;;;;;;3.92;3.72;;;;;;;;;;5032082;28;20099;-88
2022/12/23 08:51:40;;;;;;;3.15;2.95;;;;;;;;;;5032378;28;20045;-87
2022/12/23 08:54:06;;;;;;;3.85;3.53;;;;;;;;;;5032525;28;20108;-88
2022/12/23 08:56:34;;;;;;;4.78;4.38;;;;;;;;;;5032509;28;20103;-88
2022/12/23 08:59:03;;;;;;;6.00;5.28;;;;;;;;;;5028731;28;20638;-88
2022/12/23 09:01:30;;;;;;;3.42;3.22;;;;;;;;;;5012790;28;20105;-88
2022/12/23 09:03:57;;;;;;;6.45;5.78;;;;;;;;;;5012223;28;20443;-88
2022/12/23 09:06:24;;;;;;;5.50;4.97;;;;;;;;;;5014042;28;20054;-88
2022/12/23 09:08:51;;;;;;;8.25;5.18;;;;;;;;;;5051886;28;20707;-88
2022/12/23 09:11:18;;;;;;;3.58;3.33;;;;;;;;;;5052150;28;20102;-88
2022/12/23 09:13:45;;;;;;;4.25;3.60;;;;;;;;;;5054886;28;20468;-88
2022/12/23 09:16:13;;;;;;;3.10;2.90;;;;;;;;;;5056138;28;20090;-87
2022/12/23 09:18:40;;;;;;;5.05;4.63;;;;;;;;;;5056017;28;20114;-87
2022/12/23 09:21:08;;;;;;;3.90;3.60;;;;;;;;;;5055496;28;20053;-87
2022/12/23 09:23:34;;;;;;;6.00;4.95;;;;;;;;;;5056006;28;20049;-88
2022/12/23 09:26:01;;;;;;;8.88;7.38;;;;;;;;;;5055804;28;20045;-87
2022/12/23 09:28:27;;;;;;;5.65;5.30;;;;;;;;;;5056417;28;20099;-87
2022/12/23 09:30:54;;;;;;;6.03;5.47;;;;;;;;;;5055493;28;20472;-87
2022/12/23 09:33:22;;;;;;;6.95;6.18;;;;;;;;;;5055667;28;20045;-87
2022/12/23 09:35:48;;;;;;;6.00;5.57;;;;;;;;;;5055404;28;20560;-87
2022/12/23 09:38:14;;;;;;;7.63;6.93;;;;;;;;;;5055771;28;20099;-87
2022/12/23 09:40:41;;;;;;;5.80;5.18;;;;;;;;;;5055433;28;20052;-87
2022/12/23 09:43:14;;;;;;;6.75;6.22;;;;;;;;;;5048543;28;20160;-88
2022/12/23 09:46:04;;;;;;;8.70;7.97;;;;;;;;;;5035609;28;20111;-87
2022/12/23 09:48:35;;;;;;;12.15;9.93;;;;;;;;;;5025233;28;20049;-88
2022/12/23 09:51:02;;;;;;;5.68;4.97;;;;;;;;;;5035688;28;20160;-87
2022/12/23 09:53:34;;;;;;;6.60;5.95;;;;;;;;;;5035512;28;20083;-87
2022/12/23 09:56:04;;;;;;;5.53;4.93;;;;;;;;;;5049923;28;20111;-87
2022/12/23 09:58:35;;;;;;;7.85;7.03;;;;;;;;;;5054850;28;20049;-87
2022/12/23 10:01:15;;;;;;;12.98;6.20;;;;;;;;;;5055101;28;20560;-87
2022/12/23 10:03:58;;;;;;;6.95;6.35;;;;;;;;;;5054956;28;20045;-87
2022/12/23 10:06:26;;;;;;;7.03;6.50;;;;;;;;;;5054978;28;20061;-87
2022/12/23 10:08:55;;;;;;;7.40;6.63;;;;;;;;;;5055080;28;20099;-88
2022/12/23 10:11:23;;;;;;;6.53;6.03;;;;;;;;;;5054761;28;20494;-87
2022/12/23 10:13:51;;;;;;;3.65;3.30;;;;;;;;;;5054561;28;20111;-86
2022/12/23 10:16:19;;;;;;;4.25;3.90;;;;;;;;;;5054579;28;20053;-87
2022/12/23 10:18:51;;;;;;;5.00;4.53;;;;;;;;;;5035079;28;20049;-86
2022/12/23 10:21:20;;;;;;;5.07;4.68;;;;;;;;;;5035246;28;20049;-87
2022/12/23 10:23:49;;;;;;;3.92;3.67;;;;;;;;;;5034752;28;20104;-87
2022/12/23 10:26:20;;;;;;;4.22;3.90;;;;;;;;;;5035000;28;20095;-87
2022/12/23 10:28:47;;;;;;;4.25;4.00;;;;;;;;;;5023735;28;20050;-87
2022/12/23 10:31:17;;;;;;;4.30;4.00;;;;;;;;;;5025566;28;20100;-87
2022/12/23 10:33:45;;;;;;;6.18;4.90;;;;;;;;;;5014404;28;20045;-87
2022/12/23 10:36:20;;;;;;;4.07;3.65;;;;;;;;;;5014817;28;20057;-87
2022/12/23 10:38:50;;;;;;;7.32;6.13;;;;;;;;;;5014689;28;20506;-88
2022/12/23 10:41:21;;;;;;;3.85;3.63;;;;;;;;;;5014452;28;20050;-88
2022/12/23 10:43:57;;;;;;;8.88;6.53;;;;;;;;;;5014490;28;20119;-87
2022/12/23 10:46:28;;;;;;;5.28;4.88;;;;;;;;;;5014546;28;20045;-87
2022/12/23 10:48:54;;;;;;;;;;;;;;;;;;5033953;28;20106;-88
2022/12/23 10:51:25;;;;;;;4.43;4.13;;;;;;;;;;5054153;28;20011;-87
2022/12/23 10:53:53;;;;;;;4.30;4.00;;;;;;;;;;5054106;28;20045;-88
2022/12/23 10:56:20;;;;;;;5.90;5.40;;;;;;;;;;5054276;28;20041;-87
2022/12/23 10:58:50;;;;;;;8.38;5.82;;;;;;;;;;5054144;28;20049;-88
2022/12/23 11:01:17;;;;;;;6.38;5.80;;;;;;;;;;5054352;28;20053;-87
2022/12/23 11:03:46;;;;;;;5.10;4.80;;;;;;;;;;5054375;28;20402;-87
2022/12/23 11:06:13;;;;;;;6.10;4.90;;;;;;;;;;5054152;28;20114;-87
2022/12/23 11:08:41;;;;;;;6.00;5.53;;;;;;;;;;5053828;28;20057;-90
2022/12/23 11:11:08;;;;;;;5.55;5.13;;;;;;;;;;5047824;28;20049;-87
2022/12/23 11:13:36;;;;;;;3.53;3.22;;;;;;;;;;5033781;28;20052;-86
2022/12/23 11:16:13;;;;;;;6.72;5.32;;;;;;;;;;5033873;28;20049;-88
2022/12/23 11:18:51;;;;;;;21.35;5.28;;;;;;;;;;5028228;28;20053;-87
2022/12/23 11:21:18;;;;;;;4.90;4.10;;;;;;;;;;5013969;28;20393;-87
2022/12/23 11:23:46;;;;;;;4.20;3.85;;;;;;;;;;5014117;28;20073;-88
2022/12/23 11:26:13;;;;;;;2.97;2.67;;;;;;;;;;5014192;28;20050;-87
2022/12/23 11:28:47;;;;;;;9.25;6.28;;;;;;;;;;5013743;28;20573;-88
2022/12/23 11:31:15;;;;;;;4.43;4.13;;;;;;;;;;5013053;28;20105;-88
2022/12/23 11:33:46;;;;;;;3.42;3.22;;;;;;;;;;5013861;28;20081;-87
2022/12/23 11:36:17;;;;;;;8.35;6.43;;;;;;;;;;5029019;28;20560;-87
2022/12/23 11:38:49;;;;;;;6.63;6.20;;;;;;;;;;5032488;28;20049;-88
2022/12/23 11:41:18;;;;;;;4.95;4.70;;;;;;;;;;5033002;28;20104;-88
2022/12/23 11:43:48;;;;;;;5.03;3.58;;;;;;;;;;5032390;28;20053;-87
2022/12/23 11:46:16;;;;;;;7.10;5.40;;;;;;;;;;5032815;28;20130;-88
2022/12/23 11:48:43;;;;;;;7.90;7.30;;;;;;;;;;5028090;28;20056;-88
2022/12/23 11:51:09;;;;;;;4.78;4.45;;;;;;;;;;5012857;28;20100;-87
2022/12/23 11:53:36;;;;;;;6.47;5.90;;;;;;;;;;5034132;28;20045;-88
2022/12/23 11:56:05;;;;;;;8.18;6.38;;;;;;;;;;5032573;28;20060;-88
2022/12/23 11:58:36;;;;;;;7.20;6.53;;;;;;;;;;5030283;28;20107;-88
2022/12/23 12:01:07;;;;;;;4.45;4.25;;;;;;;;;;5012950;28;20132;-88
2022/12/23 12:03:34;;;;;;;5.50;3.95;;;;;;;;;;5013017;28;20053;-87
2022/12/23 12:06:02;;;;;;;7.75;6.72;;;;;;;;;;5039282;28;20099;-87
2022/12/23 12:08:31;;;;;;;10.73;3.70;;;;;;;;;;5052776;28;20053;-87
2022/12/23 12:11:02;;;;;;;6.85;6.25;;;;;;;;;;5044112;28;20088;-86
2022/12/23 12:13:31;;;;;;;5.07;4.55;;;;;;;;;;5021488;28;20100;-86
2022/12/23 12:16:02;;;;;;;4.60;4.22;;;;;;;;;;5024668;28;20081;-87
2022/12/23 12:18:29;;;;;;;6.53;6.13;;;;;;;;;;5022559;28;20133;-85
2022/12/23 12:20:58;;;;;;;6.43;5.88;;;;;;;;;;5033177;28;20099;-86
2022/12/23 12:23:27;;;;;;;4.97;4.65;;;;;;;;;;5034609;28;20091;-85
2022/12/23 12:25:56;;;;;;;7.28;6.57;;;;;;;;;;5047004;28;20102;-86
2022/12/23 12:28:24;;;;;;;7.13;6.53;;;;;;;;;;5038077;28;20124;-85
2022/12/23 12:30:55;;;;;;;5.18;4.70;;;;;;;;;;5042342;28;20054;-85
2022/12/23 12:33:21;;;;;;;;;;;;;;;;;;5046833;28;20107;-86
2022/12/23 12:35:49;;;;;;;6.22;5.65;;;;;;;;;;5024282;28;19925;-86
2022/12/23 12:38:18;;;;;;;6.68;6.15;;;;;;;;;;5017424;28;20077;-85
2022/12/23 12:40:48;;;;;;;4.93;4.55;;;;;;;;;;5028262;28;20099;-86
2022/12/23 12:43:18;;;;;;;7.90;6.15;;;;;;;;;;5032705;28;20123;-86
2022/12/23 12:45:48;;;;;;;6.57;6.05;;;;;;;;;;5031955;28;20053;-86
2022/12/23 12:48:25;;;;;;;9.05;5.07;;;;;;;;;;5034571;28;20457;-86
2022/12/23 12:50:51;;;;;;;;;;;;;;;;;;5018036;28;20388;-85
2022/12/23 12:53:20;;;;;;;5.85;5.35;;;;;;;;;;5043133;28;20301;-86
2022/12/23 12:55:49;;;;;;;5.32;5.03;;;;;;;;;;5054828;28;20462;-86
2022/12/23 12:58:17;;;;;;;6.30;5.50;;;;;;;;;;5034727;28;20045;-86
2022/12/23 13:00:49;;;;;;;4.50;4.22;;;;;;;;;;5035748;28;20131;-85
2022/12/23 13:03:22;;;;;;;7.78;7.07;;;;;;;;;;5036114;28;20053;-85
2022/12/23 13:05:55;;;;;;;6.28;5.68;;;;;;;;;;5018424;28;20050;-86
2022/12/23 13:08:36;;;;;;;5.30;4.78;;;;;;;;;;5021554;28;20049;-85
2022/12/23 13:11:05;;;;;;;4.30;3.95;;;;;;;;;;5039164;28;20053;-85
2022/12/23 13:13:38;;;;;;;7.28;6.63;;;;;;;;;;5056085;28;20045;-85
2022/12/23 13:16:12;;;;;;;6.38;5.88;;;;;;;;;;5052808;28;20041;-86
2022/12/23 13:18:42;;;;;;;6.10;5.50;;;;;;;;;;5035997;28;20057;-86
2022/12/23 13:21:13;;;;;;;6.70;6.10;;;;;;;;;;5047853;28;20103;-85
2022/12/23 13:23:42;;;;;;;13.00;6.20;;;;;;;;;;5055243;28;20041;-85
2022/12/23 13:26:13;;;;;;;6.65;5.32;;;;;;;;;;5016105;28;20071;-85
2022/12/23 13:28:39;;;;;;;;;;;;;;;;;;5016338;28;20053;-86
2022/12/23 13:31:10;;;;;;;7.22;3.58;;;;;;;;;;5033809;28;19920;-86
2022/12/23 13:33:42;;;;;;;6.45;5.20;;;;;;;;;;5040142;28;20051;-86
2022/12/23 13:36:20;;;;;;;6.30;5.90;;;;;;;;;;5042255;28;20044;-85
2022/12/23 13:38:52;;;;;;;4.80;3.83;;;;;;;;;;5043287;28;20115;-86
2022/12/23 13:41:22;;;;;;;5.38;4.25;;;;;;;;;;5050505;28;20399;-86
2022/12/23 13:43:51;;;;;;;7.32;5.75;;;;;;;;;;5054617;28;20122;-86
2022/12/23 13:46:21;;;;;;;8.45;4.90;;;;;;;;;;5035654;28;20107;-86
2022/12/23 13:48:52;;;;;;;5.63;4.25;;;;;;;;;;5035605;28;20053;-86
2022/12/23 13:51:23;;;;;;;4.22;3.80;;;;;;;;;;5034785;28;20114;-86
2022/12/23 13:53:55;;;;;;;5.47;5.05;;;;;;;;;;5034534;28;20041;-86
2022/12/23 13:56:26;;;;;;;5.93;5.45;;;;;;;;;;5015622;28;20478;-86
2022/12/23 13:58:54;;;;;;;5.85;4.97;;;;;;;;;;5020925;28;20045;-86
2022/12/23 14:01:35;;;;;;;5.50;4.28;;;;;;;;;;5034908;28;20056;-86
2022/12/23 14:04:20;;;;;;;4.93;4.47;;;;;;;;;;5034722;28;20461;-86
2022/12/23 14:06:48;;;;;;;4.35;3.95;;;;;;;;;;5014879;28;20050;-86
2022/12/23 14:09:16;;;;;;;8.00;4.03;;;;;;;;;;5014503;28;20104;-86
2022/12/23 14:11:43;;;;;;;4.90;4.32;;;;;;;;;;5014777;28;20124;-86
2022/12/23 14:14:17;;;;;;;5.65;5.25;;;;;;;;;;5014446;28;20100;-86
2022/12/23 14:16:48;;;;;;;5.40;4.70;;;;;;;;;;5016853;28;20049;-86
2022/12/23 14:19:32;;;;;;;4.13;3.80;;;;;;;;;;5046644;28;20046;-87
2022/12/23 14:22:06;;;;;;;7.57;5.45;;;;;;;;;;5033562;28;20050;-87
2022/12/23 14:24:51;;;;;;;5.22;4.25;;;;;;;;;;5034421;28;20049;-86
2022/12/23 14:27:30;;;;;;;5.20;4.72;;;;;;;;;;5034797;28;20053;-87
2022/12/23 14:30:01;;;;;;;5.32;4.97;;;;;;;;;;5034684;28;20634;-86
2022/12/23 14:32:30;;;;;;;4.32;4.13;;;;;;;;;;5035124;28;20053;-87
2022/12/23 14:35:16;;;;;;;6.05;5.43;;;;;;;;;;5036425;28;20458;-86
2022/12/23 14:38:03;;;;;;;3.22;3.03;;;;;;;;;;5034515;28;20060;-86
2022/12/23 14:40:53;;;;;;;5.30;4.78;;;;;;;;;;5034276;28;20095;-86
2022/12/23 14:43:30;;;;;;;3.92;3.72;;;;;;;;;;5034561;28;20103;-86
2022/12/23 14:45:57;;;;;;;6.22;5.68;;;;;;;;;;5034531;28;20119;-87
2022/12/23 14:48:47;;;;;;;4.28;3.72;;;;;;;;;;5034179;28;20091;-86
2022/12/23 14:51:22;;;;;;;4.20;3.88;;;;;;;;;;4992462;28;20094;-86
2022/12/23 14:54:03;;;;;;;5.07;4.78;;;;;;;;;;4992910;28;20046;-86
2022/12/23 14:56:35;;;;;;;3.80;3.60;;;;;;;;;;4953126;28;20051;-86
2022/12/23 14:59:10;;;;;;;6.75;5.85;;;;;;;;;;4953854;29;20098;-86
2022/12/23 15:01:38;;;;;;;9.07;4.75;;;;;;;;;;4970765;28;20054;-86
2022/12/23 15:04:09;;;;;;;6.13;4.60;;;;;;;;;;4973243;28;20492;-86
2022/12/23 15:06:36;;;;;;;6.32;5.22;;;;;;;;;;4972708;28;20061;-86
2022/12/23 15:09:03;;;;;;;5.53;5.13;;;;;;;;;;4980627;28;20046;-86
2022/12/23 15:11:33;;;;;;;5.05;2.78;;;;;;;;;;4991645;28;20042;-86
2022/12/23 15:14:01;;;;;;;10.57;3.78;;;;;;;;;;4992084;28;20112;-86
2022/12/23 15:16:32;;;;;;;6.05;4.47;;;;;;;;;;4992268;28;20051;-86
2022/12/23 15:18:58;;;;;;;;;;;;;;;;;;4992665;28;20050;-86
2022/12/23 15:21:29;;;;;;;3.15;2.95;;;;;;;;;;4992078;28;20449;-86